sensor_id;sensor_type;location;lat;lon;timestamp;temperature;humidity
33247;DHT22;19606;50.108;19.804;2022-12-18T00:01:45;-4.20;1.00
33247;DHT22;19606;50.108;19.804;2022-12-18T00:04:36;-3.20;1.00
33247;DHT22;19606;50.108;19.804;2022-12-18T00:07:02;-3.60;1.00
33247;DHT22;19606;50.108;19.804;2022-12-18T00:09:28;-4.20;1.00
33247;DHT22;19606;50.108;19.804;2022-12-18T00:11:54;-2.70;1.00
33247;DHT22;19606;50.108;19.804;2022-12-18T00:14:19;-3.80;1.00
33247;DHT22;19606;50.108;19.804;2022-12-18T00:16:46;-4.30;1.00
33247;DHT22;19606;50.108;19.804;2022-12-18T00:19:13;-2.30;1.00
33247;DHT22;19606;50.108;19.804;2022-12-18T00:21:39;-4.30;1.00
33247;DHT22;19606;50.108;19.804;2022-12-18T00:24:05;-3.70;1.00
33247;DHT22;19606;50.108;19.804;2022-12-18T00:26:32;-4.10;1.00
33247;DHT22;19606;50.108;19.804;2022-12-18T00:29:01;-4.20;1.00
33247;DHT22;19606;50.108;19.804;2022-12-18T00:31:27;-4.20;1.00
33247;DHT22;19606;50.108;19.804;2022-12-18T00:33:56;-4.10;1.00
33247;DHT22;19606;50.108;19.804;2022-12-18T00:36:25;-4.20;1.00
33247;DHT22;19606;50.108;19.804;2022-12-18T00:38:52;-2.50;1.00
33247;DHT22;19606;50.108;19.804;2022-12-18T00:41:19;-3.90;1.00
33247;DHT22;19606;50.108;19.804;2022-12-18T00:44:04;-3.20;1.00
33247;DHT22;19606;50.108;19.804;2022-12-18T00:46:30;-4.10;1.00
33247;DHT22;19606;50.108;19.804;2022-12-18T00:48:56;-4.20;1.00
33247;DHT22;19606;50.108;19.804;2022-12-18T00:51:22;-2.30;1.00
33247;DHT22;19606;50.108;19.804;2022-12-18T00:53:48;-4.10;1.00
33247;DHT22;19606;50.108;19.804;2022-12-18T00:56:13;-4.20;1.00
33247;DHT22;19606;50.108;19.804;2022-12-18T00:58:39;-2.60;1.00
33247;DHT22;19606;50.108;19.804;2022-12-18T01:01:05;-4.10;1.00
33247;DHT22;19606;50.108;19.804;2022-12-18T01:03:31;-2.40;1.00
33247;DHT22;19606;50.108;19.804;2022-12-18T01:05:57;-4.10;1.00
33247;DHT22;19606;50.108;19.804;2022-12-18T01:08:23;-4.10;1.00
33247;DHT22;19606;50.108;19.804;2022-12-18T01:10:48;-4.20;1.00
33247;DHT22;19606;50.108;19.804;2022-12-18T01:13:14;-2.30;1.00
33247;DHT22;19606;50.108;19.804;2022-12-18T01:15:40;-4.10;1.00
33247;DHT22;19606;50.108;19.804;2022-12-18T01:18:06;-4.00;1.00
33247;DHT22;19606;50.108;19.804;2022-12-18T01:20:32;-3.30;1.00
33247;DHT22;19606;50.108;19.804;2022-12-18T01:22:58;-4.10;1.00
33247;DHT22;19606;50.108;19.804;2022-12-18T01:25:23;-3.10;1.00
33247;DHT22;19606;50.108;19.804;2022-12-18T01:30:15;-4.10;1.00
33247;DHT22;19606;50.108;19.804;2022-12-18T01:32:40;-4.00;1.00
33247;DHT22;19606;50.108;19.804;2022-12-18T01:35:07;-4.20;1.00
33247;DHT22;19606;50.108;19.804;2022-12-18T01:37:32;-4.10;1.00
33247;DHT22;19606;50.108;19.804;2022-12-18T01:39:58;-2.20;1.00
33247;DHT22;19606;50.108;19.804;2022-12-18T01:42:24;-2.80;1.00
33247;DHT22;19606;50.108;19.804;2022-12-18T01:49:52;-4.20;1.00
33247;DHT22;19606;50.108;19.804;2022-12-18T01:52:19;-4.10;1.00
33247;DHT22;19606;50.108;19.804;2022-12-18T01:54:47;-4.20;1.00
33247;DHT22;19606;50.108;19.804;2022-12-18T01:57:14;-2.60;99.90
33247;DHT22;19606;50.108;19.804;2022-12-18T01:59:41;-2.40;1.00
33247;DHT22;19606;50.108;19.804;2022-12-18T02:02:08;-3.30;99.90
33247;DHT22;19606;50.108;19.804;2022-12-18T02:04:34;-4.20;99.90
33247;DHT22;19606;50.108;19.804;2022-12-18T02:07:33;-4.10;99.90
33247;DHT22;19606;50.108;19.804;2022-12-18T02:10:24;-4.10;99.90
33247;DHT22;19606;50.108;19.804;2022-12-18T02:17:58;-4.10;1.00
33247;DHT22;19606;50.108;19.804;2022-12-18T02:29:24;-4.10;1.00
33247;DHT22;19606;50.108;19.804;2022-12-18T02:31:55;-4.20;1.00
33247;DHT22;19606;50.108;19.804;2022-12-18T02:34:25;-4.30;99.90
33247;DHT22;19606;50.108;19.804;2022-12-18T02:36:53;-4.20;99.90
33247;DHT22;19606;50.108;19.804;2022-12-18T02:39:21;-3.50;99.90
33247;DHT22;19606;50.108;19.804;2022-12-18T02:41:49;-4.20;1.00
33247;DHT22;19606;50.108;19.804;2022-12-18T02:44:15;-4.20;99.90
33247;DHT22;19606;50.108;19.804;2022-12-18T02:46:44;-4.10;99.90
33247;DHT22;19606;50.108;19.804;2022-12-18T03:00:14;-4.10;99.90
33247;DHT22;19606;50.108;19.804;2022-12-18T03:05:29;-4.20;99.90
33247;DHT22;19606;50.108;19.804;2022-12-18T03:08:00;-4.10;1.00
33247;DHT22;19606;50.108;19.804;2022-12-18T03:10:30;-4.20;1.00
33247;DHT22;19606;50.108;19.804;2022-12-18T03:13:13;-4.30;1.00
33247;DHT22;19606;50.108;19.804;2022-12-18T03:15:47;-4.20;1.00
33247;DHT22;19606;50.108;19.804;2022-12-18T03:18:18;-3.60;1.00
33247;DHT22;19606;50.108;19.804;2022-12-18T03:20:46;-4.30;1.00
33247;DHT22;19606;50.108;19.804;2022-12-18T03:23:17;-4.30;1.00
33247;DHT22;19606;50.108;19.804;2022-12-18T03:25:44;-4.30;1.00
33247;DHT22;19606;50.108;19.804;2022-12-18T03:28:19;-4.30;1.00
33247;DHT22;19606;50.108;19.804;2022-12-18T03:30:47;-4.30;1.00
33247;DHT22;19606;50.108;19.804;2022-12-18T03:33:27;-4.30;1.00
33247;DHT22;19606;50.108;19.804;2022-12-18T03:35:55;-4.20;1.00
33247;DHT22;19606;50.108;19.804;2022-12-18T03:40:53;-4.30;1.00
33247;DHT22;19606;50.108;19.804;2022-12-18T03:43:52;-4.40;1.00
33247;DHT22;19606;50.108;19.804;2022-12-18T03:46:45;-4.10;1.00
33247;DHT22;19606;50.108;19.804;2022-12-18T03:49:29;-4.30;1.00
33247;DHT22;19606;50.108;19.804;2022-12-18T03:52:27;-4.30;1.00
33247;DHT22;19606;50.108;19.804;2022-12-18T03:54:55;-4.20;1.00
33247;DHT22;19606;50.108;19.804;2022-12-18T03:57:25;-3.30;1.00
33247;DHT22;19606;50.108;19.804;2022-12-18T03:59:56;-3.50;1.00
33247;DHT22;19606;50.108;19.804;2022-12-18T04:02:24;-2.60;1.00
33247;DHT22;19606;50.108;19.804;2022-12-18T04:04:53;-4.20;1.00
33247;DHT22;19606;50.108;19.804;2022-12-18T04:07:20;-3.80;1.00
33247;DHT22;19606;50.108;19.804;2022-12-18T04:09:48;-4.40;1.00
33247;DHT22;19606;50.108;19.804;2022-12-18T04:12:15;-4.30;1.00
33247;DHT22;19606;50.108;19.804;2022-12-18T04:14:40;-4.30;1.00
33247;DHT22;19606;50.108;19.804;2022-12-18T04:17:06;-3.00;1.00
33247;DHT22;19606;50.108;19.804;2022-12-18T04:19:32;-3.50;1.00
33247;DHT22;19606;50.108;19.804;2022-12-18T04:21:57;-4.30;1.00
33247;DHT22;19606;50.108;19.804;2022-12-18T04:24:23;-4.40;1.00
33247;DHT22;19606;50.108;19.804;2022-12-18T04:26:48;-2.90;1.00
33247;DHT22;19606;50.108;19.804;2022-12-18T04:29:14;-4.40;1.00
33247;DHT22;19606;50.108;19.804;2022-12-18T04:31:40;-4.30;1.00
33247;DHT22;19606;50.108;19.804;2022-12-18T04:34:05;-4.20;1.00
33247;DHT22;19606;50.108;19.804;2022-12-18T04:36:31;-2.60;1.00
33247;DHT22;19606;50.108;19.804;2022-12-18T04:38:57;-4.40;1.00
33247;DHT22;19606;50.108;19.804;2022-12-18T04:41:22;-2.60;1.00
33247;DHT22;19606;50.108;19.804;2022-12-18T04:43:48;-4.40;1.00
33247;DHT22;19606;50.108;19.804;2022-12-18T04:46:14;-4.20;1.00
33247;DHT22;19606;50.108;19.804;2022-12-18T04:48:39;-4.40;1.00
33247;DHT22;19606;50.108;19.804;2022-12-18T04:51:06;-2.60;1.00
33247;DHT22;19606;50.108;19.804;2022-12-18T04:53:32;-4.40;1.00
33247;DHT22;19606;50.108;19.804;2022-12-18T04:56:05;-4.00;1.00
33247;DHT22;19606;50.108;19.804;2022-12-18T04:58:31;-3.70;1.00
33247;DHT22;19606;50.108;19.804;2022-12-18T05:00:57;-3.40;1.00
33247;DHT22;19606;50.108;19.804;2022-12-18T05:03:22;-3.10;1.00
33247;DHT22;19606;50.108;19.804;2022-12-18T05:05:51;-4.50;1.00
33247;DHT22;19606;50.108;19.804;2022-12-18T05:08:17;-2.80;1.00
33247;DHT22;19606;50.108;19.804;2022-12-18T05:10:43;-4.50;1.00
33247;DHT22;19606;50.108;19.804;2022-12-18T05:13:09;-4.40;1.00
33247;DHT22;19606;50.108;19.804;2022-12-18T05:15:35;-4.50;1.00
33247;DHT22;19606;50.108;19.804;2022-12-18T05:18:01;-4.50;1.00
33247;DHT22;19606;50.108;19.804;2022-12-18T05:20:28;-4.50;1.00
33247;DHT22;19606;50.108;19.804;2022-12-18T05:22:54;-3.60;1.00
33247;DHT22;19606;50.108;19.804;2022-12-18T05:25:20;-4.50;1.00
33247;DHT22;19606;50.108;19.804;2022-12-18T05:27:46;-4.40;1.00
33247;DHT22;19606;50.108;19.804;2022-12-18T05:30:12;-4.50;1.00
33247;DHT22;19606;50.108;19.804;2022-12-18T05:32:38;-4.40;1.00
33247;DHT22;19606;50.108;19.804;2022-12-18T05:35:06;-4.50;1.00
33247;DHT22;19606;50.108;19.804;2022-12-18T05:37:32;-4.40;1.00
33247;DHT22;19606;50.108;19.804;2022-12-18T05:39:57;-4.50;1.00
33247;DHT22;19606;50.108;19.804;2022-12-18T05:42:23;-3.10;1.00
33247;DHT22;19606;50.108;19.804;2022-12-18T05:44:49;-4.30;1.00
33247;DHT22;19606;50.108;19.804;2022-12-18T05:47:14;-4.40;1.00
33247;DHT22;19606;50.108;19.804;2022-12-18T05:49:40;-4.50;1.00
33247;DHT22;19606;50.108;19.804;2022-12-18T05:52:05;-4.50;1.00
33247;DHT22;19606;50.108;19.804;2022-12-18T05:54:31;-2.60;1.00
33247;DHT22;19606;50.108;19.804;2022-12-18T05:56:57;-4.30;1.00
33247;DHT22;19606;50.108;19.804;2022-12-18T05:59:23;-4.50;1.00
33247;DHT22;19606;50.108;19.804;2022-12-18T06:01:49;-4.50;1.00
33247;DHT22;19606;50.108;19.804;2022-12-18T06:04:15;-4.50;1.00
33247;DHT22;19606;50.108;19.804;2022-12-18T06:06:40;-2.70;1.00
33247;DHT22;19606;50.108;19.804;2022-12-18T06:09:06;-4.50;1.00
33247;DHT22;19606;50.108;19.804;2022-12-18T06:11:38;-4.50;1.00
33247;DHT22;19606;50.108;19.804;2022-12-18T06:14:05;-4.40;1.00
33247;DHT22;19606;50.108;19.804;2022-12-18T06:16:32;-4.50;1.00
33247;DHT22;19606;50.108;19.804;2022-12-18T06:18:58;-2.20;1.00
33247;DHT22;19606;50.108;19.804;2022-12-18T06:21:24;-4.50;1.00
33247;DHT22;19606;50.108;19.804;2022-12-18T06:23:49;-4.40;1.00
33247;DHT22;19606;50.108;19.804;2022-12-18T06:26:15;-2.80;1.00
33247;DHT22;19606;50.108;19.804;2022-12-18T06:28:41;-3.40;1.00
33247;DHT22;19606;50.108;19.804;2022-12-18T06:31:07;-4.50;1.00
33247;DHT22;19606;50.108;19.804;2022-12-18T06:33:34;-3.30;1.00
33247;DHT22;19606;50.108;19.804;2022-12-18T06:36:06;-4.50;1.00
33247;DHT22;19606;50.108;19.804;2022-12-18T06:38:33;-4.40;1.00
33247;DHT22;19606;50.108;19.804;2022-12-18T06:40:59;-4.50;1.00
33247;DHT22;19606;50.108;19.804;2022-12-18T06:43:25;-4.40;1.00
33247;DHT22;19606;50.108;19.804;2022-12-18T06:45:50;-4.40;1.00
33247;DHT22;19606;50.108;19.804;2022-12-18T06:48:19;-4.40;1.00
33247;DHT22;19606;50.108;19.804;2022-12-18T06:50:45;-2.60;1.00
33247;DHT22;19606;50.108;19.804;2022-12-18T06:53:11;-3.60;1.00
33247;DHT22;19606;50.108;19.804;2022-12-18T06:55:37;-4.30;1.00
33247;DHT22;19606;50.108;19.804;2022-12-18T06:58:02;-4.10;1.00
33247;DHT22;19606;50.108;19.804;2022-12-18T07:00:28;-4.20;1.00
33247;DHT22;19606;50.108;19.804;2022-12-18T07:02:54;-2.60;1.00
33247;DHT22;19606;50.108;19.804;2022-12-18T07:05:20;-4.20;1.00
33247;DHT22;19606;50.108;19.804;2022-12-18T07:07:46;-4.30;1.00
33247;DHT22;19606;50.108;19.804;2022-12-18T07:10:12;-4.20;1.00
33247;DHT22;19606;50.108;19.804;2022-12-18T07:12:38;-2.60;1.00
33247;DHT22;19606;50.108;19.804;2022-12-18T07:15:04;-2.20;1.00
33247;DHT22;19606;50.108;19.804;2022-12-18T07:17:30;-4.30;99.90
33247;DHT22;19606;50.108;19.804;2022-12-18T07:19:55;-2.60;1.00
33247;DHT22;19606;50.108;19.804;2022-12-18T07:22:21;-3.10;1.00
33247;DHT22;19606;50.108;19.804;2022-12-18T07:24:50;-3.40;1.00
33247;DHT22;19606;50.108;19.804;2022-12-18T07:27:15;-3.90;1.00
33247;DHT22;19606;50.108;19.804;2022-12-18T07:29:41;-3.80;99.90
33247;DHT22;19606;50.108;19.804;2022-12-18T07:32:06;-2.50;99.90
33247;DHT22;19606;50.108;19.804;2022-12-18T07:34:32;-3.70;99.90
33247;DHT22;19606;50.108;19.804;2022-12-18T07:36:58;-1.60;99.90
33247;DHT22;19606;50.108;19.804;2022-12-18T07:39:24;-1.70;99.90
33247;DHT22;19606;50.108;19.804;2022-12-18T07:41:49;-1.70;22.80
33247;DHT22;19606;50.108;19.804;2022-12-18T07:44:35;-3.30;98.30
33247;DHT22;19606;50.108;19.804;2022-12-18T07:47:01;-2.40;1.00
33247;DHT22;19606;50.108;19.804;2022-12-18T07:49:27;-3.40;1.00
33247;DHT22;19606;50.108;19.804;2022-12-18T07:54:20;-3.30;1.00
33247;DHT22;19606;50.108;19.804;2022-12-18T07:56:46;-3.80;99.90
33247;DHT22;19606;50.108;19.804;2022-12-18T07:59:11;-3.40;1.00
33247;DHT22;19606;50.108;19.804;2022-12-18T08:01:37;-3.40;89.50
33247;DHT22;19606;50.108;19.804;2022-12-18T08:04:03;-3.30;1.00
33247;DHT22;19606;50.108;19.804;2022-12-18T08:06:28;-2.90;1.00
33247;DHT22;19606;50.108;19.804;2022-12-18T08:08:55;-3.00;99.90
33247;DHT22;19606;50.108;19.804;2022-12-18T08:11:22;-1.40;1.00
33247;DHT22;19606;50.108;19.804;2022-12-18T08:13:48;-3.10;1.00
33247;DHT22;19606;50.108;19.804;2022-12-18T08:16:13;-3.30;1.00
33247;DHT22;19606;50.108;19.804;2022-12-18T08:18:39;-2.30;99.90
33247;DHT22;19606;50.108;19.804;2022-12-18T08:23:34;-1.90;63.70
33247;DHT22;19606;50.108;19.804;2022-12-18T08:26:00;-3.00;99.90
33247;DHT22;19606;50.108;19.804;2022-12-18T08:28:29;-1.90;1.00
33247;DHT22;19606;50.108;19.804;2022-12-18T08:30:55;-2.70;1.00
33247;DHT22;19606;50.108;19.804;2022-12-18T08:33:21;-2.20;1.00
33247;DHT22;19606;50.108;19.804;2022-12-18T08:35:46;-0.70;1.00
33247;DHT22;19606;50.108;19.804;2022-12-18T08:38:12;-1.40;1.00
33247;DHT22;19606;50.108;19.804;2022-12-18T08:40:37;-0.40;95.90
33247;DHT22;19606;50.108;19.804;2022-12-18T08:43:03;0.70;99.90
33247;DHT22;19606;50.108;19.804;2022-12-18T08:45:47;-1.90;25.10
33247;DHT22;19606;50.108;19.804;2022-12-18T08:48:13;-1.00;99.90
33247;DHT22;19606;50.108;19.804;2022-12-18T08:50:38;-1.00;99.90
33247;DHT22;19606;50.108;19.804;2022-12-18T08:53:04;0.30;60.30
33247;DHT22;19606;50.108;19.804;2022-12-18T08:55:30;0.20;1.00
33247;DHT22;19606;50.108;19.804;2022-12-18T08:57:55;-0.30;1.00
33247;DHT22;19606;50.108;19.804;2022-12-18T09:00:21;-0.30;99.90
33247;DHT22;19606;50.108;19.804;2022-12-18T09:02:47;-0.90;1.00
33247;DHT22;19606;50.108;19.804;2022-12-18T09:05:13;-0.60;1.00
33247;DHT22;19606;50.108;19.804;2022-12-18T09:07:38;-1.10;1.00
33247;DHT22;19606;50.108;19.804;2022-12-18T09:10:04;-0.80;1.00
33247;DHT22;19606;50.108;19.804;2022-12-18T09:12:30;-1.00;99.90
33247;DHT22;19606;50.108;19.804;2022-12-18T09:14:57;-0.10;97.90
33247;DHT22;19606;50.108;19.804;2022-12-18T09:17:22;-0.80;1.00
33247;DHT22;19606;50.108;19.804;2022-12-18T09:19:48;0.00;1.00
33247;DHT22;19606;50.108;19.804;2022-12-18T09:22:14;0.20;99.90
33247;DHT22;19606;50.108;19.804;2022-12-18T09:24:40;-0.60;99.90
33247;DHT22;19606;50.108;19.804;2022-12-18T09:27:05;-0.40;15.90
33247;DHT22;19606;50.108;19.804;2022-12-18T09:29:32;-1.00;1.00
33247;DHT22;19606;50.108;19.804;2022-12-18T09:31:57;-0.60;1.00
33247;DHT22;19606;50.108;19.804;2022-12-18T09:34:23;-0.20;99.90
33247;DHT22;19606;50.108;19.804;2022-12-18T09:36:49;-0.30;1.00
33247;DHT22;19606;50.108;19.804;2022-12-18T09:41:47;-0.70;1.00
33247;DHT22;19606;50.108;19.804;2022-12-18T09:44:34;-1.40;71.90
33247;DHT22;19606;50.108;19.804;2022-12-18T09:49:38;-0.90;11.10
33247;DHT22;19606;50.108;19.804;2022-12-18T09:52:17;-1.00;20.80
33247;DHT22;19606;50.108;19.804;2022-12-18T09:54:50;-1.50;99.90
33247;DHT22;19606;50.108;19.804;2022-12-18T09:57:20;-1.20;99.90
33247;DHT22;19606;50.108;19.804;2022-12-18T09:59:57;-1.20;1.00
33247;DHT22;19606;50.108;19.804;2022-12-18T10:02:25;-0.30;1.00
33247;DHT22;19606;50.108;19.804;2022-12-18T10:05:03;-0.70;1.00
33247;DHT22;19606;50.108;19.804;2022-12-18T10:10:32;-0.10;1.00
33247;DHT22;19606;50.108;19.804;2022-12-18T10:13:09;-0.20;1.00
33247;DHT22;19606;50.108;19.804;2022-12-18T10:21:00;-1.00;99.90
33247;DHT22;19606;50.108;19.804;2022-12-18T10:26:07;-1.20;99.90
33247;DHT22;19606;50.108;19.804;2022-12-18T10:28:39;-1.60;1.00
33247;DHT22;19606;50.108;19.804;2022-12-18T10:31:15;-0.40;88.20
33247;DHT22;19606;50.108;19.804;2022-12-18T10:33:42;0.00;58.50
33247;DHT22;19606;50.108;19.804;2022-12-18T10:36:08;1.00;1.00
33247;DHT22;19606;50.108;19.804;2022-12-18T10:38:34;1.30;99.90
33247;DHT22;19606;50.108;19.804;2022-12-18T10:41:24;2.40;98.70
33247;DHT22;19606;50.108;19.804;2022-12-18T10:44:21;3.50;1.00
33247;DHT22;19606;50.108;19.804;2022-12-18T10:46:50;3.30;99.90
33247;DHT22;19606;50.108;19.804;2022-12-18T10:49:27;4.40;1.00
33247;DHT22;19606;50.108;19.804;2022-12-18T10:52:14;3.40;1.00
33247;DHT22;19606;50.108;19.804;2022-12-18T10:54:49;4.90;1.00
33247;DHT22;19606;50.108;19.804;2022-12-18T10:57:28;6.30;1.00
33247;DHT22;19606;50.108;19.804;2022-12-18T10:59:57;5.40;1.00
33247;DHT22;19606;50.108;19.804;2022-12-18T11:02:38;7.30;1.00
33247;DHT22;19606;50.108;19.804;2022-12-18T11:07:49;8.40;1.00
33247;DHT22;19606;50.108;19.804;2022-12-18T11:10:20;5.60;1.00
33247;DHT22;19606;50.108;19.804;2022-12-18T11:12:47;6.00;1.00
33247;DHT22;19606;50.108;19.804;2022-12-18T11:15:19;5.60;1.00
33247;DHT22;19606;50.108;19.804;2022-12-18T11:17:48;4.10;1.00
33247;DHT22;19606;50.108;19.804;2022-12-18T11:20:35;3.00;1.00
33247;DHT22;19606;50.108;19.804;2022-12-18T11:23:04;5.30;1.00
33247;DHT22;19606;50.108;19.804;2022-12-18T11:25:32;5.40;1.00
33247;DHT22;19606;50.108;19.804;2022-12-18T11:28:00;5.10;1.00
33247;DHT22;19606;50.108;19.804;2022-12-18T11:38:04;4.80;1.00
33247;DHT22;19606;50.108;19.804;2022-12-18T11:40:40;5.20;1.00
33247;DHT22;19606;50.108;19.804;2022-12-18T11:43:25;4.10;1.00
33247;DHT22;19606;50.108;19.804;2022-12-18T11:45:55;2.00;1.00
33247;DHT22;19606;50.108;19.804;2022-12-18T11:51:10;0.00;18.40
33247;DHT22;19606;50.108;19.804;2022-12-18T11:53:36;0.30;21.20
33247;DHT22;19606;50.108;19.804;2022-12-18T12:08:39;-0.90;1.00
33247;DHT22;19606;50.108;19.804;2022-12-18T12:21:42;-1.70;99.90
33247;DHT22;19606;50.108;19.804;2022-12-18T12:26:55;-1.30;99.90
33247;DHT22;19606;50.108;19.804;2022-12-18T12:37:40;-1.30;99.90
33247;DHT22;19606;50.108;19.804;2022-12-18T12:40:17;-2.00;99.90
33247;DHT22;19606;50.108;19.804;2022-12-18T12:42:52;-2.00;1.00
33247;DHT22;19606;50.108;19.804;2022-12-18T12:46:04;-1.70;99.90
33247;DHT22;19606;50.108;19.804;2022-12-18T12:51:57;-2.40;99.90
33247;DHT22;19606;50.108;19.804;2022-12-18T12:54:26;-2.30;1.00
33247;DHT22;19606;50.108;19.804;2022-12-18T12:57:14;-2.50;99.90
33247;DHT22;19606;50.108;19.804;2022-12-18T13:13:13;-2.60;99.90
33247;DHT22;19606;50.108;19.804;2022-12-18T13:15:44;-2.60;1.00
33247;DHT22;19606;50.108;19.804;2022-12-18T13:25:49;-1.70;1.00
33247;DHT22;19606;50.108;19.804;2022-12-18T13:31:10;-3.10;1.00
33247;DHT22;19606;50.108;19.804;2022-12-18T13:33:38;-3.20;1.00
33247;DHT22;19606;50.108;19.804;2022-12-18T13:38:43;-1.80;1.00
33247;DHT22;19606;50.108;19.804;2022-12-18T13:43:49;-2.30;1.00
33247;DHT22;19606;50.108;19.804;2022-12-18T13:46:30;-2.10;1.00
33247;DHT22;19606;50.108;19.804;2022-12-18T13:51:49;-2.30;1.00
33247;DHT22;19606;50.108;19.804;2022-12-18T13:54:21;-3.90;1.00
33247;DHT22;19606;50.108;19.804;2022-12-18T13:56:49;-3.80;1.00
33247;DHT22;19606;50.108;19.804;2022-12-18T13:59:21;-4.10;1.00
33247;DHT22;19606;50.108;19.804;2022-12-18T14:01:51;-4.10;1.00
33247;DHT22;19606;50.108;19.804;2022-12-18T14:04:30;-4.20;1.00
33247;DHT22;19606;50.108;19.804;2022-12-18T14:07:14;-4.20;1.00
33247;DHT22;19606;50.108;19.804;2022-12-18T14:09:43;-4.30;1.00
33247;DHT22;19606;50.108;19.804;2022-12-18T14:12:17;-3.50;1.00
33247;DHT22;19606;50.108;19.804;2022-12-18T14:15:03;-4.80;1.00
33247;DHT22;19606;50.108;19.804;2022-12-18T14:17:31;-4.70;1.00
33247;DHT22;19606;50.108;19.804;2022-12-18T14:19:57;-4.90;1.00
33247;DHT22;19606;50.108;19.804;2022-12-18T14:22:26;-5.00;1.00
33247;DHT22;19606;50.108;19.804;2022-12-18T14:25:16;-5.10;1.00
33247;DHT22;19606;50.108;19.804;2022-12-18T14:27:44;-5.00;1.00
33247;DHT22;19606;50.108;19.804;2022-12-18T14:30:37;-5.10;1.00
33247;DHT22;19606;50.108;19.804;2022-12-18T14:33:14;-4.20;1.00
33247;DHT22;19606;50.108;19.804;2022-12-18T14:35:42;-5.40;1.00
33247;DHT22;19606;50.108;19.804;2022-12-18T14:38:29;-5.80;1.00
33247;DHT22;19606;50.108;19.804;2022-12-18T14:41:03;-6.10;1.00
33247;DHT22;19606;50.108;19.804;2022-12-18T14:43:32;-6.10;1.00
33247;DHT22;19606;50.108;19.804;2022-12-18T14:45:58;-5.00;1.00
33247;DHT22;19606;50.108;19.804;2022-12-18T14:48:40;-6.20;1.00
33247;DHT22;19606;50.108;19.804;2022-12-18T14:51:21;-6.20;1.00
33247;DHT22;19606;50.108;19.804;2022-12-18T14:53:54;-5.80;99.90
33247;DHT22;19606;50.108;19.804;2022-12-18T14:56:32;-6.40;1.00
33247;DHT22;19606;50.108;19.804;2022-12-18T15:01:32;-6.50;1.00
33247;DHT22;19606;50.108;19.804;2022-12-18T15:03:59;-6.60;1.00
33247;DHT22;19606;50.108;19.804;2022-12-18T15:06:36;-6.50;1.00
33247;DHT22;19606;50.108;19.804;2022-12-18T15:09:24;-6.40;1.00
33247;DHT22;19606;50.108;19.804;2022-12-18T15:11:56;-6.50;1.00
33247;DHT22;19606;50.108;19.804;2022-12-18T15:14:40;-6.80;1.00
33247;DHT22;19606;50.108;19.804;2022-12-18T15:17:18;-6.70;1.00
33247;DHT22;19606;50.108;19.804;2022-12-18T15:19:45;-6.90;1.00
33247;DHT22;19606;50.108;19.804;2022-12-18T15:27:33;-7.10;1.00
33247;DHT22;19606;50.108;19.804;2022-12-18T15:32:39;-7.10;1.00
33247;DHT22;19606;50.108;19.804;2022-12-18T15:35:24;-7.10;1.00
33247;DHT22;19606;50.108;19.804;2022-12-18T15:37:51;-6.00;1.00
33247;DHT22;19606;50.108;19.804;2022-12-18T15:40:22;-7.40;1.00
33247;DHT22;19606;50.108;19.804;2022-12-18T15:42:52;-7.50;1.00
33247;DHT22;19606;50.108;19.804;2022-12-18T15:45:37;-7.60;1.00
33247;DHT22;19606;50.108;19.804;2022-12-18T15:48:22;-7.60;1.00
33247;DHT22;19606;50.108;19.804;2022-12-18T15:50:50;-7.50;1.00
33247;DHT22;19606;50.108;19.804;2022-12-18T15:53:17;-7.50;4.30
33247;DHT22;19606;50.108;19.804;2022-12-18T15:55:43;-7.70;1.00
33247;DHT22;19606;50.108;19.804;2022-12-18T15:58:27;-7.70;1.00
33247;DHT22;19606;50.108;19.804;2022-12-18T16:00:54;-7.80;3.00
33247;DHT22;19606;50.108;19.804;2022-12-18T16:03:21;-7.90;1.00
33247;DHT22;19606;50.108;19.804;2022-12-18T16:05:47;-7.90;7.70
33247;DHT22;19606;50.108;19.804;2022-12-18T16:08:12;-7.90;1.00
33247;DHT22;19606;50.108;19.804;2022-12-18T16:10:38;-8.00;1.00
33247;DHT22;19606;50.108;19.804;2022-12-18T16:13:04;-8.10;1.00
33247;DHT22;19606;50.108;19.804;2022-12-18T16:15:29;-8.20;1.00
33247;DHT22;19606;50.108;19.804;2022-12-18T16:17:55;-8.20;1.00
33247;DHT22;19606;50.108;19.804;2022-12-18T16:20:22;-8.20;6.90
33247;DHT22;19606;50.108;19.804;2022-12-18T16:22:48;-8.10;32.40
33247;DHT22;19606;50.108;19.804;2022-12-18T16:25:20;-8.10;33.10
33247;DHT22;19606;50.108;19.804;2022-12-18T16:27:46;-8.10;39.60
33247;DHT22;19606;50.108;19.804;2022-12-18T16:30:18;-8.10;22.20
33247;DHT22;19606;50.108;19.804;2022-12-18T16:32:44;-8.10;4.80
33247;DHT22;19606;50.108;19.804;2022-12-18T16:35:11;-8.30;2.10
33247;DHT22;19606;50.108;19.804;2022-12-18T16:37:39;-8.20;56.20
33247;DHT22;19606;50.108;19.804;2022-12-18T16:40:06;-8.10;99.90
33247;DHT22;19606;50.108;19.804;2022-12-18T16:42:34;-8.10;99.90
33247;DHT22;19606;50.108;19.804;2022-12-18T16:45:00;-8.40;85.40
33247;DHT22;19606;50.108;19.804;2022-12-18T16:47:25;-7.40;77.10
33247;DHT22;19606;50.108;19.804;2022-12-18T16:49:51;-8.80;69.30
33247;DHT22;19606;50.108;19.804;2022-12-18T16:52:18;-8.70;99.90
33247;DHT22;19606;50.108;19.804;2022-12-18T16:54:44;-8.70;99.90
33247;DHT22;19606;50.108;19.804;2022-12-18T16:57:13;-8.80;99.90
33247;DHT22;19606;50.108;19.804;2022-12-18T16:59:39;-8.90;99.90
33247;DHT22;19606;50.108;19.804;2022-12-18T17:02:05;-9.00;99.90
33247;DHT22;19606;50.108;19.804;2022-12-18T17:04:31;-9.20;99.90
33247;DHT22;19606;50.108;19.804;2022-12-18T17:06:56;-9.20;99.90
33247;DHT22;19606;50.108;19.804;2022-12-18T17:09:22;-9.10;99.90
33247;DHT22;19606;50.108;19.804;2022-12-18T17:11:51;-9.10;99.90
33247;DHT22;19606;50.108;19.804;2022-12-18T17:14:19;-9.40;99.90
33247;DHT22;19606;50.108;19.804;2022-12-18T17:16:46;-9.40;99.90
33247;DHT22;19606;50.108;19.804;2022-12-18T17:19:12;-9.50;99.90
33247;DHT22;19606;50.108;19.804;2022-12-18T17:21:38;-9.50;99.90
33247;DHT22;19606;50.108;19.804;2022-12-18T17:24:04;-9.20;99.90
33247;DHT22;19606;50.108;19.804;2022-12-18T17:26:30;-9.40;99.90
33247;DHT22;19606;50.108;19.804;2022-12-18T17:28:56;-9.60;99.90
33247;DHT22;19606;50.108;19.804;2022-12-18T17:31:23;-9.60;99.90
33247;DHT22;19606;50.108;19.804;2022-12-18T17:36:16;-9.50;99.90
33247;DHT22;19606;50.108;19.804;2022-12-18T17:38:42;-9.40;99.90
33247;DHT22;19606;50.108;19.804;2022-12-18T17:41:09;-9.40;99.90
33247;DHT22;19606;50.108;19.804;2022-12-18T17:43:36;-9.20;99.90
33247;DHT22;19606;50.108;19.804;2022-12-18T17:46:11;-9.30;99.90
33247;DHT22;19606;50.108;19.804;2022-12-18T17:51:08;-9.20;99.90
33247;DHT22;19606;50.108;19.804;2022-12-18T17:53:34;-9.10;99.90
33247;DHT22;19606;50.108;19.804;2022-12-18T17:56:00;-9.10;99.90
33247;DHT22;19606;50.108;19.804;2022-12-18T17:58:29;-9.10;99.90
33247;DHT22;19606;50.108;19.804;2022-12-18T18:00:54;-9.10;99.90
33247;DHT22;19606;50.108;19.804;2022-12-18T18:03:23;-9.10;99.90
33247;DHT22;19606;50.108;19.804;2022-12-18T18:05:57;-9.20;99.90
33247;DHT22;19606;50.108;19.804;2022-12-18T18:08:23;-9.20;99.90
33247;DHT22;19606;50.108;19.804;2022-12-18T18:10:49;-9.30;99.90
33247;DHT22;19606;50.108;19.804;2022-12-18T18:13:23;-9.30;99.90
33247;DHT22;19606;50.108;19.804;2022-12-18T18:16:08;-9.50;99.90
33247;DHT22;19606;50.108;19.804;2022-12-18T18:18:34;-9.50;99.90